sensor_id;sensor_type;location;lat;lon;timestamp;pressure;altitude;pressure_sealevel;temperature;humidity
55456;BME280;63021;52.836;6.376;2022-09-09T00:02:20;100809.25;;;14.42;77.16
55456;BME280;63021;52.836;6.376;2022-09-09T00:04:58;100800.72;;;14.38;77.26
55456;BME280;63021;52.836;6.376;2022-09-09T00:15:22;100802.91;;;14.34;77.18
55456;BME280;63021;52.836;6.376;2022-09-09T00:20:52;100801.06;;;14.35;77.30
55456;BME280;63021;52.836;6.376;2022-09-09T00:23:28;100802.25;;;14.32;77.44
55456;BME280;63021;52.836;6.376;2022-09-09T00:25:56;100788.88;;;14.32;77.58
55456;BME280;63021;52.836;6.376;2022-09-09T00:28:26;100787.38;;;14.30;77.53
55456;BME280;63021;52.836;6.376;2022-09-09T00:30:52;100792.72;;;14.30;77.65
55456;BME280;63021;52.836;6.376;2022-09-09T00:33:21;100778.66;;;14.28;77.32
55456;BME280;63021;52.836;6.376;2022-09-09T00:36:09;100789.38;;;14.28;77.44
55456;BME280;63021;52.836;6.376;2022-09-09T00:38:47;100788.72;;;14.26;77.52
55456;BME280;63021;52.836;6.376;2022-09-09T00:44:06;100779.34;;;14.21;77.56
55456;BME280;63021;52.836;6.376;2022-09-09T00:46:50;100779.53;;;14.20;77.49
55456;BME280;63021;52.836;6.376;2022-09-09T00:55:09;100788.09;;;14.15;77.53
55456;BME280;63021;52.836;6.376;2022-09-09T00:57:39;100776.03;;;14.11;77.46
55456;BME280;63021;52.836;6.376;2022-09-09T01:05:51;100780.53;;;14.19;77.99
55456;BME280;63021;52.836;6.376;2022-09-09T01:11:21;100785.22;;;14.25;78.16
55456;BME280;63021;52.836;6.376;2022-09-09T01:13:53;100790.41;;;14.27;78.26
55456;BME280;63021;52.836;6.376;2022-09-09T01:16:21;100791.88;;;14.29;78.28
55456;BME280;63021;52.836;6.376;2022-09-09T01:18:49;100790.03;;;14.30;78.38
55456;BME280;63021;52.836;6.376;2022-09-09T01:21:27;100788.69;;;14.34;78.11
55456;BME280;63021;52.836;6.376;2022-09-09T01:26:44;100796.03;;;14.40;78.40
55456;BME280;63021;52.836;6.376;2022-09-09T01:29:16;100792.34;;;14.41;78.58
55456;BME280;63021;52.836;6.376;2022-09-09T01:31:54;100789.31;;;14.44;78.43
55456;BME280;63021;52.836;6.376;2022-09-09T01:34:21;100792.81;;;14.45;78.10
55456;BME280;63021;52.836;6.376;2022-09-09T01:39:26;100787.28;;;14.46;78.31
55456;BME280;63021;52.836;6.376;2022-09-09T01:41:53;100779.06;;;14.48;78.84
55456;BME280;63021;52.836;6.376;2022-09-09T01:44:19;100779.94;;;14.48;78.73
55456;BME280;63021;52.836;6.376;2022-09-09T01:46:45;100784.25;;;14.49;78.60
55456;BME280;63021;52.836;6.376;2022-09-09T01:49:10;100781.56;;;14.49;78.65
55456;BME280;63021;52.836;6.376;2022-09-09T01:51:36;100782.44;;;14.50;78.58
55456;BME280;63021;52.836;6.376;2022-09-09T01:54:03;100784.25;;;14.49;78.98
55456;BME280;63021;52.836;6.376;2022-09-09T01:56:36;100787.63;;;14.51;79.09
55456;BME280;63021;52.836;6.376;2022-09-09T02:04:39;100787.91;;;14.56;79.53
55456;BME280;63021;52.836;6.376;2022-09-09T02:07:17;100784.91;;;14.60;79.90
55456;BME280;63021;52.836;6.376;2022-09-09T02:09:47;100789.22;;;14.61;79.77
55456;BME280;63021;52.836;6.376;2022-09-09T02:12:17;100784.59;;;14.63;79.90
55456;BME280;63021;52.836;6.376;2022-09-09T02:14:50;100786.91;;;14.66;79.75
55456;BME280;63021;52.836;6.376;2022-09-09T02:17:19;100791.25;;;14.67;79.46
55456;BME280;63021;52.836;6.376;2022-09-09T02:19:51;100784.06;;;14.67;79.56
55456;BME280;63021;52.836;6.376;2022-09-09T02:22:21;100776.19;;;14.66;79.83
55456;BME280;63021;52.836;6.376;2022-09-09T02:24:49;100780.84;;;14.72;79.89
55456;BME280;63021;52.836;6.376;2022-09-09T02:27:18;100772.25;;;14.77;79.94
55456;BME280;63021;52.836;6.376;2022-09-09T02:29:44;100777.44;;;14.78;79.68
55456;BME280;63021;52.836;6.376;2022-09-09T02:32:14;100778.13;;;14.80;79.85
55456;BME280;63021;52.836;6.376;2022-09-09T02:34:48;100776.09;;;14.82;79.89
55456;BME280;63021;52.836;6.376;2022-09-09T02:37:17;100777.41;;;14.86;79.96
55456;BME280;63021;52.836;6.376;2022-09-09T02:39:44;100782.75;;;14.86;79.58
55456;BME280;63021;52.836;6.376;2022-09-09T02:42:09;100778.25;;;14.87;79.67
55456;BME280;63021;52.836;6.376;2022-09-09T02:44:35;100777.91;;;14.90;79.82
55456;BME280;63021;52.836;6.376;2022-09-09T02:52:13;100777.72;;;14.92;79.84
55456;BME280;63021;52.836;6.376;2022-09-09T02:54:42;100767.00;;;14.92;79.83
55456;BME280;63021;52.836;6.376;2022-09-09T02:57:15;100769.50;;;14.93;79.14
55456;BME280;63021;52.836;6.376;2022-09-09T02:59:44;100774.00;;;14.93;79.22
55456;BME280;63021;52.836;6.376;2022-09-09T03:02:10;100771.31;;;14.93;79.53
55456;BME280;63021;52.836;6.376;2022-09-09T03:04:37;100766.63;;;14.95;79.48
55456;BME280;63021;52.836;6.376;2022-09-09T03:07:02;100761.28;;;14.95;79.60
55456;BME280;63021;52.836;6.376;2022-09-09T03:09:28;100763.97;;;14.95;79.85
55456;BME280;63021;52.836;6.376;2022-09-09T03:11:54;100766.47;;;14.96;79.52
55456;BME280;63021;52.836;6.376;2022-09-09T03:14:20;100766.47;;;14.96;79.13
55456;BME280;63021;52.836;6.376;2022-09-09T03:16:49;100767.09;;;14.98;79.43
55456;BME280;63021;52.836;6.376;2022-09-09T03:19:15;100759.06;;;14.98;79.36
55456;BME280;63021;52.836;6.376;2022-09-09T03:21:40;100760.91;;;14.98;79.63
55456;BME280;63021;52.836;6.376;2022-09-09T03:24:06;100756.56;;;14.97;79.41
55456;BME280;63021;52.836;6.376;2022-09-09T03:26:31;100752.69;;;14.99;79.36
55456;BME280;63021;52.836;6.376;2022-09-09T03:28:57;100754.72;;;14.97;78.62
55456;BME280;63021;52.836;6.376;2022-09-09T03:31:22;100756.38;;;14.98;79.14
55456;BME280;63021;52.836;6.376;2022-09-09T03:33:48;100767.97;;;14.99;79.15
55456;BME280;63021;52.836;6.376;2022-09-09T03:36:14;100760.91;;;14.98;79.57
55456;BME280;63021;52.836;6.376;2022-09-09T03:38:40;100764.59;;;14.97;79.36
55456;BME280;63021;52.836;6.376;2022-09-09T03:41:05;100764.59;;;14.97;79.18
55456;BME280;63021;52.836;6.376;2022-09-09T03:43:31;100767.47;;;14.95;79.30
55456;BME280;63021;52.836;6.376;2022-09-09T03:45:57;100769.97;;;14.97;79.52
55456;BME280;63021;52.836;6.376;2022-09-09T03:48:24;100769.13;;;14.96;79.75
55456;BME280;63021;52.836;6.376;2022-09-09T03:50:52;100760.09;;;14.97;79.57
55456;BME280;63021;52.836;6.376;2022-09-09T03:53:19;100769.97;;;14.97;79.23
55456;BME280;63021;52.836;6.376;2022-09-09T03:55:45;100767.47;;;14.95;79.57
55456;BME280;63021;52.836;6.376;2022-09-09T03:58:14;100782.53;;;14.96;79.37
55456;BME280;63021;52.836;6.376;2022-09-09T04:00:40;100781.03;;;14.94;79.10
55456;BME280;63021;52.836;6.376;2022-09-09T04:03:09;100777.34;;;14.95;79.11
55456;BME280;63021;52.836;6.376;2022-09-09T04:05:35;100780.03;;;14.95;78.84
55456;BME280;63021;52.836;6.376;2022-09-09T04:08:00;100766.81;;;14.93;79.48
55456;BME280;63021;52.836;6.376;2022-09-09T04:10:26;100783.09;;;14.92;79.35
55456;BME280;63021;52.836;6.376;2022-09-09T04:12:51;100773.53;;;14.89;79.46
55456;BME280;63021;52.836;6.376;2022-09-09T04:15:17;100782.41;;;14.89;79.44
55456;BME280;63021;52.836;6.376;2022-09-09T04:17:43;100778.06;;;14.88;79.30
55456;BME280;63021;52.836;6.376;2022-09-09T04:20:08;100780.94;;;14.87;79.44
55456;BME280;63021;52.836;6.376;2022-09-09T04:22:37;100780.94;;;14.87;79.41
55456;BME280;63021;52.836;6.376;2022-09-09T04:25:05;100778.25;;;14.87;79.59
55456;BME280;63021;52.836;6.376;2022-09-09T04:27:31;100773.03;;;14.85;79.76
55456;BME280;63021;52.836;6.376;2022-09-09T04:29:56;100775.72;;;14.85;79.61
55456;BME280;63021;52.836;6.376;2022-09-09T04:32:22;100765.19;;;14.84;79.81
55456;BME280;63021;52.836;6.376;2022-09-09T04:34:47;100775.91;;;14.84;79.63
55456;BME280;63021;52.836;6.376;2022-09-09T04:37:13;100770.72;;;14.82;79.80
55456;BME280;63021;52.836;6.376;2022-09-09T04:39:39;100766.41;;;14.81;79.77
55456;BME280;63021;52.836;6.376;2022-09-09T04:42:04;100768.22;;;14.81;79.72
55456;BME280;63021;52.836;6.376;2022-09-09T04:44:29;100769.25;;;14.80;79.57
55456;BME280;63021;52.836;6.376;2022-09-09T04:46:55;100776.44;;;14.79;79.54
55456;BME280;63021;52.836;6.376;2022-09-09T04:49:21;100765.91;;;14.78;79.74
55456;BME280;63021;52.836;6.376;2022-09-09T04:51:48;100770.44;;;14.77;79.68
55456;BME280;63021;52.836;6.376;2022-09-09T04:54:14;100769.59;;;14.77;79.39
55456;BME280;63021;52.836;6.376;2022-09-09T04:56:39;100774.28;;;14.75;79.34
55456;BME280;63021;52.836;6.376;2022-09-09T04:59:06;100769.13;;;14.73;79.81
55456;BME280;63021;52.836;6.376;2022-09-09T05:01:31;100767.44;;;14.72;79.54
55456;BME280;63021;52.836;6.376;2022-09-09T05:03:57;100769.47;;;14.70;79.35
55456;BME280;63021;52.836;6.376;2022-09-09T05:06:23;100775.84;;;14.69;79.69
55456;BME280;63021;52.836;6.376;2022-09-09T05:08:48;100772.69;;;14.65;79.59
55456;BME280;63021;52.836;6.376;2022-09-09T05:11:24;100768.34;;;14.64;79.15
55456;BME280;63021;52.836;6.376;2022-09-09T05:13:51;100773.88;;;14.63;79.66
55456;BME280;63021;52.836;6.376;2022-09-09T05:16:17;100783.88;;;14.61;79.45
55456;BME280;63021;52.836;6.376;2022-09-09T05:18:43;100772.50;;;14.59;79.30
55456;BME280;63021;52.836;6.376;2022-09-09T05:21:10;100772.69;;;14.57;79.83
55456;BME280;63021;52.836;6.376;2022-09-09T05:23:36;100771.66;;;14.58;79.37
55456;BME280;63021;52.836;6.376;2022-09-09T05:26:03;100777.19;;;14.56;79.46
55456;BME280;63021;52.836;6.376;2022-09-09T05:28:28;100780.91;;;14.55;79.39
55456;BME280;63021;52.836;6.376;2022-09-09T05:30:58;100781.72;;;14.56;79.43
55456;BME280;63021;52.836;6.376;2022-09-09T05:33:24;100776.53;;;14.54;79.18
55456;BME280;63021;52.836;6.376;2022-09-09T05:36:20;100772.88;;;14.55;79.44
55456;BME280;63021;52.836;6.376;2022-09-09T05:38:47;100771.38;;;14.53;79.55
55456;BME280;63021;52.836;6.376;2022-09-09T05:41:13;100766.84;;;14.53;79.78
55456;BME280;63021;52.836;6.376;2022-09-09T05:43:43;100767.69;;;14.54;79.51
55456;BME280;63021;52.836;6.376;2022-09-09T05:46:17;100775.72;;;14.54;79.56
55456;BME280;63021;52.836;6.376;2022-09-09T05:48:44;100782.72;;;14.55;79.51
55456;BME280;63021;52.836;6.376;2022-09-09T05:51:17;100780.22;;;14.53;79.21
55456;BME280;63021;52.836;6.376;2022-09-09T05:53:43;100775.72;;;14.54;79.72
55456;BME280;63021;52.836;6.376;2022-09-09T05:56:14;100785.41;;;14.55;79.48
55456;BME280;63021;52.836;6.376;2022-09-09T05:58:40;100787.25;;;14.54;79.75
55456;BME280;63021;52.836;6.376;2022-09-09T06:01:20;100776.38;;;14.56;79.85
55456;BME280;63021;52.836;6.376;2022-09-09T06:03:47;100776.53;;;14.54;79.65
55456;BME280;63021;52.836;6.376;2022-09-09T06:06:21;100773.03;;;14.54;79.65
55456;BME280;63021;52.836;6.376;2022-09-09T06:08:47;100777.38;;;14.55;79.44
55456;BME280;63021;52.836;6.376;2022-09-09T06:11:18;100771.00;;;14.56;79.28
55456;BME280;63021;52.836;6.376;2022-09-09T06:13:44;100773.69;;;14.56;79.92
55456;BME280;63021;52.836;6.376;2022-09-09T06:16:11;100775.38;;;14.57;79.70
55456;BME280;63021;52.836;6.376;2022-09-09T06:18:38;100768.97;;;14.58;79.73
55456;BME280;63021;52.836;6.376;2022-09-09T06:21:06;100778.69;;;14.59;79.50
55456;BME280;63021;52.836;6.376;2022-09-09T06:23:33;100777.69;;;14.60;79.79
55456;BME280;63021;52.836;6.376;2022-09-09T06:26:11;100774.88;;;14.62;80.08
55456;BME280;63021;52.836;6.376;2022-09-09T06:28:37;100776.69;;;14.61;79.32
55456;BME280;63021;52.836;6.376;2022-09-09T06:31:05;100772.00;;;14.63;79.68
55456;BME280;63021;52.836;6.376;2022-09-09T06:33:33;100772.00;;;14.63;79.30
55456;BME280;63021;52.836;6.376;2022-09-09T06:36:00;100783.22;;;14.67;79.66
55456;BME280;63021;52.836;6.376;2022-09-09T06:38:26;100776.84;;;14.68;79.72
55456;BME280;63021;52.836;6.376;2022-09-09T06:40:57;100776.47;;;14.71;79.57
55456;BME280;63021;52.836;6.376;2022-09-09T06:43:27;100782.34;;;14.75;79.69
55456;BME280;63021;52.836;6.376;2022-09-09T06:45:54;100781.97;;;14.78;79.58
55456;BME280;63021;52.836;6.376;2022-09-09T06:48:19;100776.25;;;14.81;79.77
55456;BME280;63021;52.836;6.376;2022-09-09T06:50:45;100773.03;;;14.85;79.83
55456;BME280;63021;52.836;6.376;2022-09-09T06:53:10;100775.41;;;14.88;79.79
55456;BME280;63021;52.836;6.376;2022-09-09T06:55:35;100780.88;;;14.95;79.38
55456;BME280;63021;52.836;6.376;2022-09-09T06:58:01;100774.13;;;14.99;80.04
55456;BME280;63021;52.836;6.376;2022-09-09T07:00:27;100765.38;;;15.05;79.66
55456;BME280;63021;52.836;6.376;2022-09-09T07:02:53;100782.13;;;15.07;79.54
55456;BME280;63021;52.836;6.376;2022-09-09T07:05:18;100775.22;;;15.13;79.41
55456;BME280;63021;52.836;6.376;2022-09-09T07:07:44;100775.50;;;15.18;79.72
55456;BME280;63021;52.836;6.376;2022-09-09T07:10:10;100773.97;;;15.24;79.60
55456;BME280;63021;52.836;6.376;2022-09-09T07:12:35;100769.72;;;15.30;79.66
55456;BME280;63021;52.836;6.376;2022-09-09T07:15:00;100760.13;;;15.35;79.74
55456;BME280;63021;52.836;6.376;2022-09-09T07:17:27;100776.16;;;15.44;79.67
55456;BME280;63021;52.836;6.376;2022-09-09T07:19:53;100772.28;;;15.46;79.46
55456;BME280;63021;52.836;6.376;2022-09-09T07:22:18;100764.50;;;15.51;80.02
55456;BME280;63021;52.836;6.376;2022-09-09T07:24:44;100766.50;;;15.57;79.77
55456;BME280;63021;52.836;6.376;2022-09-09T07:27:10;100761.22;;;15.64;79.78
55456;BME280;63021;52.836;6.376;2022-09-09T07:29:35;100758.00;;;15.69;79.48
55456;BME280;63021;52.836;6.376;2022-09-09T07:32:01;100760.78;;;15.75;79.59
55456;BME280;63021;52.836;6.376;2022-09-09T07:34:27;100753.22;;;15.79;79.68
55456;BME280;63021;52.836;6.376;2022-09-09T07:36:53;100770.28;;;15.86;79.72
55456;BME280;63021;52.836;6.376;2022-09-09T07:39:18;100760.66;;;15.92;79.58
55456;BME280;63021;52.836;6.376;2022-09-09T07:41:46;100771.66;;;15.97;79.31
55456;BME280;63021;52.836;6.376;2022-09-09T07:44:17;100779.34;;;16.00;79.51
55456;BME280;63021;52.836;6.376;2022-09-09T07:46:44;100772.56;;;16.04;79.24
55456;BME280;63021;52.836;6.376;2022-09-09T07:49:10;100764.81;;;16.09;79.62
55456;BME280;63021;52.836;6.376;2022-09-09T07:51:38;100767.59;;;16.16;79.45
55456;BME280;63021;52.836;6.376;2022-09-09T07:54:06;100775.91;;;16.21;79.18
55456;BME280;63021;52.836;6.376;2022-09-09T07:56:32;100776.22;;;16.26;79.28
55456;BME280;63021;52.836;6.376;2022-09-09T07:58:58;100777.66;;;16.29;78.99
55456;BME280;63021;52.836;6.376;2022-09-09T08:01:32;100772.38;;;16.36;78.62
55456;BME280;63021;52.836;6.376;2022-09-09T08:04:00;100772.19;;;16.37;78.24
55456;BME280;63021;52.836;6.376;2022-09-09T08:06:27;100777.84;;;16.42;78.75
55456;BME280;63021;52.836;6.376;2022-09-09T08:08:54;100782.47;;;16.49;78.60
55456;BME280;63021;52.836;6.376;2022-09-09T08:11:22;100768.84;;;16.50;78.72
55456;BME280;63021;52.836;6.376;2022-09-09T08:13:49;100769.50;;;16.52;77.79
55456;BME280;63021;52.836;6.376;2022-09-09T08:16:18;100777.19;;;16.55;78.19
55456;BME280;63021;52.836;6.376;2022-09-09T08:18:47;100772.25;;;16.59;78.31
55456;BME280;63021;52.836;6.376;2022-09-09T08:21:18;100773.94;;;16.60;77.95
55456;BME280;63021;52.836;6.376;2022-09-09T08:23:45;100780.78;;;16.62;77.80
55456;BME280;63021;52.836;6.376;2022-09-09T08:26:17;100781.22;;;16.66;77.45
55456;BME280;63021;52.836;6.376;2022-09-09T08:28:48;100784.19;;;16.71;77.64
55456;BME280;63021;52.836;6.376;2022-09-09T08:31:29;100777.63;;;16.74;77.56
55456;BME280;63021;52.836;6.376;2022-09-09T08:33:56;100781.75;;;16.76;77.07
55456;BME280;63021;52.836;6.376;2022-09-09T08:36:24;100785.31;;;16.77;77.27
55456;BME280;63021;52.836;6.376;2022-09-09T08:38:53;100782.22;;;16.80;77.14
55456;BME280;63021;52.836;6.376;2022-09-09T08:50:13;100787.28;;;17.05;77.47
55456;BME280;63021;52.836;6.376;2022-09-09T08:55:21;100797.09;;;17.12;76.62
55456;BME280;63021;52.836;6.376;2022-09-09T08:57:50;100783.88;;;17.18;76.63
55456;BME280;63021;52.836;6.376;2022-09-09T09:00:17;100792.63;;;17.20;76.56
55456;BME280;63021;52.836;6.376;2022-09-09T09:02:53;100796.19;;;17.27;76.56
55456;BME280;63021;52.836;6.376;2022-09-09T09:05:47;100797.28;;;17.33;76.96
55456;BME280;63021;52.836;6.376;2022-09-09T09:08:31;100799.00;;;17.40;77.00
55456;BME280;63021;52.836;6.376;2022-09-09T09:11:00;100799.06;;;17.47;76.03
55456;BME280;63021;52.836;6.376;2022-09-09T09:13:46;100795.41;;;17.55;76.17
55456;BME280;63021;52.836;6.376;2022-09-09T09:18:58;100802.09;;;17.65;75.60
55456;BME280;63021;52.836;6.376;2022-09-09T09:21:36;100805.06;;;17.71;76.14
55456;BME280;63021;52.836;6.376;2022-09-09T09:24:10;100807.56;;;17.72;75.00
55456;BME280;63021;52.836;6.376;2022-09-09T09:26:40;100816.91;;;17.76;75.42
55456;BME280;63021;52.836;6.376;2022-09-09T09:29:16;100819.19;;;17.79;74.92
55456;BME280;63021;52.836;6.376;2022-09-09T09:31:53;100810.31;;;17.79;74.71
55456;BME280;63021;52.836;6.376;2022-09-09T09:34:22;100816.31;;;17.81;74.38
55456;BME280;63021;52.836;6.376;2022-09-09T09:37:01;100815.28;;;17.82;73.66
55456;BME280;63021;52.836;6.376;2022-09-09T09:39:33;100821.31;;;17.84;73.78
55456;BME280;63021;52.836;6.376;2022-09-09T09:42:09;100820.94;;;17.87;73.45
55456;BME280;63021;52.836;6.376;2022-09-09T09:44:39;100807.47;;;17.87;74.10
55456;BME280;63021;52.836;6.376;2022-09-09T09:47:11;100809.41;;;17.93;74.48
55456;BME280;63021;52.836;6.376;2022-09-09T09:49:38;100810.47;;;17.99;73.92
55456;BME280;63021;52.836;6.376;2022-09-09T09:52:04;100817.75;;;18.05;73.78
55456;BME280;63021;52.836;6.376;2022-09-09T09:54:38;100804.34;;;18.12;73.86
55456;BME280;63021;52.836;6.376;2022-09-09T09:57:15;100805.41;;;18.17;73.48
55456;BME280;63021;52.836;6.376;2022-09-09T09:59:41;100805.84;;;18.21;73.58
55456;BME280;63021;52.836;6.376;2022-09-09T10:04:40;100807.16;;;18.32;73.30
55456;BME280;63021;52.836;6.376;2022-09-09T10:07:21;100808.03;;;18.39;72.24
55456;BME280;63021;52.836;6.376;2022-09-09T10:09:52;100808.84;;;18.40;72.07
55456;BME280;63021;52.836;6.376;2022-09-09T10:12:33;100811.34;;;18.41;71.52
55456;BME280;63021;52.836;6.376;2022-09-09T10:17:54;100814.69;;;18.43;71.21
55456;BME280;63021;52.836;6.376;2022-09-09T10:23:44;100818.03;;;18.52;71.13
55456;BME280;63021;52.836;6.376;2022-09-09T10:34:41;100813.16;;;18.76;69.54
55456;BME280;63021;52.836;6.376;2022-09-09T10:40:28;100814.66;;;18.85;69.65
55456;BME280;63021;52.836;6.376;2022-09-09T10:48:44;100822.09;;;18.83;69.68
55456;BME280;63021;52.836;6.376;2022-09-09T10:51:23;100811.31;;;18.76;70.14
55456;BME280;63021;52.836;6.376;2022-09-09T10:56:44;100818.69;;;18.61;70.87
55456;BME280;63021;52.836;6.376;2022-09-09T10:59:20;100821.16;;;18.56;71.52
55456;BME280;63021;52.836;6.376;2022-09-09T11:01:55;100813.66;;;18.51;71.04
55456;BME280;63021;52.836;6.376;2022-09-09T11:04:50;100816.78;;;18.48;71.62
55456;BME280;63021;52.836;6.376;2022-09-09T11:07:47;100824.22;;;18.46;72.12
55456;BME280;63021;52.836;6.376;2022-09-09T11:10:42;100809.09;;;18.45;71.73
55456;BME280;63021;52.836;6.376;2022-09-09T11:13:17;100823.59;;;18.44;71.59
55456;BME280;63021;52.836;6.376;2022-09-09T11:15:51;100815.06;;;18.40;71.37
55456;BME280;63021;52.836;6.376;2022-09-09T11:18:21;100824.41;;;18.38;71.51
55456;BME280;63021;52.836;6.376;2022-09-09T11:20:51;100826.44;;;18.35;71.72
55456;BME280;63021;52.836;6.376;2022-09-09T11:23:25;100815.44;;;18.30;71.11
55456;BME280;63021;52.836;6.376;2022-09-09T11:25:59;100816.41;;;18.23;71.03
55456;BME280;63021;52.836;6.376;2022-09-09T11:34:10;100818.59;;;18.06;71.48
55456;BME280;63021;52.836;6.376;2022-09-09T11:42:18;100808.88;;;18.11;71.72
55456;BME280;63021;52.836;6.376;2022-09-09T11:44:44;100813.50;;;18.17;71.75
55456;BME280;63021;52.836;6.376;2022-09-09T11:47:23;100811.28;;;18.28;72.27
55456;BME280;63021;52.836;6.376;2022-09-09T11:52:45;100819.25;;;18.49;72.61
55456;BME280;63021;52.836;6.376;2022-09-09T11:55:24;100811.22;;;18.63;71.45
55456;BME280;63021;52.836;6.376;2022-09-09T11:58:01;100808.97;;;18.73;71.31
55456;BME280;63021;52.836;6.376;2022-09-09T12:00:48;100807.59;;;18.84;71.24
55456;BME280;63021;52.836;6.376;2022-09-09T12:05:59;100802.28;;;19.04;70.75
55456;BME280;63021;52.836;6.376;2022-09-09T12:08:28;100803.31;;;19.16;70.68
55456;BME280;63021;52.836;6.376;2022-09-09T12:10:58;100801.66;;;19.22;69.31
55456;BME280;63021;52.836;6.376;2022-09-09T12:13:28;100806.47;;;19.27;69.80
55456;BME280;63021;52.836;6.376;2022-09-09T12:15:58;100803.97;;;19.32;68.82
55456;BME280;63021;52.836;6.376;2022-09-09T12:18:35;100799.63;;;19.37;68.66
55456;BME280;63021;52.836;6.376;2022-09-09T12:21:11;100799.41;;;19.39;68.89
55456;BME280;63021;52.836;6.376;2022-09-09T12:23:48;100792.16;;;19.39;68.09
55456;BME280;63021;52.836;6.376;2022-09-09T12:29:12;100784.88;;;19.53;68.30
55456;BME280;63021;52.836;6.376;2022-09-09T12:32:17;100781.56;;;19.65;67.72
55456;BME280;63021;52.836;6.376;2022-09-09T12:35:11;100775.94;;;19.73;66.93
55456;BME280;63021;52.836;6.376;2022-09-09T12:37:46;100772.22;;;19.74;66.73
55456;BME280;63021;52.836;6.376;2022-09-09T12:42:49;100775.13;;;19.66;66.60
55456;BME280;63021;52.836;6.376;2022-09-09T12:45:23;100780.53;;;19.59;66.24
55456;BME280;63021;52.836;6.376;2022-09-09T12:48:06;100792.56;;;19.50;66.86
55456;BME280;63021;52.836;6.376;2022-09-09T12:50:37;100787.16;;;19.43;67.49
55456;BME280;63021;52.836;6.376;2022-09-09T12:53:33;100777.41;;;19.49;68.52
55456;BME280;63021;52.836;6.376;2022-09-09T12:55:59;100766.59;;;19.62;69.10
55456;BME280;63021;52.836;6.376;2022-09-09T12:58:27;100773.03;;;19.74;68.97
55456;BME280;63021;52.836;6.376;2022-09-09T13:00:57;100765.53;;;19.77;68.75
55456;BME280;63021;52.836;6.376;2022-09-09T13:03:24;100764.31;;;19.72;69.00
55456;BME280;63021;52.836;6.376;2022-09-09T13:05:50;100763.47;;;19.72;68.92
55456;BME280;63021;52.836;6.376;2022-09-09T13:08:17;100763.69;;;19.77;69.47
55456;BME280;63021;52.836;6.376;2022-09-09T13:10:57;100761.84;;;19.84;68.85
55456;BME280;63021;52.836;6.376;2022-09-09T13:16:00;100760.16;;;19.83;68.69
55456;BME280;63021;52.836;6.376;2022-09-09T13:18:31;100753.75;;;19.84;68.16
55456;BME280;63021;52.836;6.376;2022-09-09T13:20:58;100758.94;;;19.79;67.33
55456;BME280;63021;52.836;6.376;2022-09-09T13:23:28;100754.72;;;19.77;66.69
55456;BME280;63021;52.836;6.376;2022-09-09T13:26:24;100750.00;;;19.79;67.72
55456;BME280;63021;52.836;6.376;2022-09-09T13:28:51;100755.59;;;19.77;66.90
55456;BME280;63021;52.836;6.376;2022-09-09T13:31:29;100758.06;;;19.72;66.54
55456;BME280;63021;52.836;6.376;2022-09-09T13:33:55;100772.84;;;19.63;66.48
55456;BME280;63021;52.836;6.376;2022-09-09T13:36:31;100770.97;;;19.50;66.12
55456;BME280;63021;52.836;6.376;2022-09-09T13:38:59;100786.34;;;19.36;66.77
55456;BME280;63021;52.836;6.376;2022-09-09T13:41:32;100785.50;;;19.29;66.49
55456;BME280;63021;52.836;6.376;2022-09-09T13:43:58;100777.00;;;19.25;67.05
55456;BME280;63021;52.836;6.376;2022-09-09T13:49:01;100769.31;;;19.49;69.41
55456;BME280;63021;52.836;6.376;2022-09-09T13:51:41;100768.69;;;19.80;69.34
55456;BME280;63021;52.836;6.376;2022-09-09T13:54:10;100765.31;;;20.12;69.00
55456;BME280;63021;52.836;6.376;2022-09-09T13:56:37;100764.81;;;20.41;67.76
55456;BME280;63021;52.836;6.376;2022-09-09T13:59:05;100763.66;;;20.69;67.95
55456;BME280;63021;52.836;6.376;2022-09-09T14:01:31;100762.06;;;20.93;67.00
55456;BME280;63021;52.836;6.376;2022-09-09T14:03:58;100757.34;;;21.14;66.87
55456;BME280;63021;52.836;6.376;2022-09-09T14:06:24;100749.06;;;21.34;65.15
55456;BME280;63021;52.836;6.376;2022-09-09T14:08:50;100755.25;;;21.41;64.29
55456;BME280;63021;52.836;6.376;2022-09-09T14:11:16;100750.50;;;21.37;63.82
55456;BME280;63021;52.836;6.376;2022-09-09T14:13:42;100764.50;;;21.34;63.79
55456;BME280;63021;52.836;6.376;2022-09-09T14:16:07;100752.81;;;21.33;63.63
55456;BME280;63021;52.836;6.376;2022-09-09T14:18:33;100753.38;;;21.42;62.98
55456;BME280;63021;52.836;6.376;2022-09-09T14:20:59;100746.91;;;21.43;63.20
55456;BME280;63021;52.836;6.376;2022-09-09T14:23:25;100748.56;;;21.44;62.27
55456;BME280;63021;52.836;6.376;2022-09-09T14:25:51;100747.09;;;21.48;61.13
55456;BME280;63021;52.836;6.376;2022-09-09T14:28:17;100751.41;;;21.56;60.78
55456;BME280;63021;52.836;6.376;2022-09-09T14:30:43;100751.28;;;21.69;61.31
55456;BME280;63021;52.836;6.376;2022-09-09T14:33:11;100755.09;;;21.87;61.11
55456;BME280;63021;52.836;6.376;2022-09-09T14:35:37;100745.75;;;22.01;60.74
55456;BME280;63021;52.836;6.376;2022-09-09T14:38:04;100749.13;;;22.15;60.80
55456;BME280;63021;52.836;6.376;2022-09-09T14:40:29;100751.53;;;22.23;59.70
55456;BME280;63021;52.836;6.376;2022-09-09T14:42:55;100746.34;;;22.22;59.29
55456;BME280;63021;52.836;6.376;2022-09-09T14:45:22;100754.47;;;22.22;58.45
55456;BME280;63021;52.836;6.376;2022-09-09T14:47:50;100743.81;;;22.08;58.94
55456;BME280;63021;52.836;6.376;2022-09-09T14:50:17;100752.91;;;21.95;58.43
55456;BME280;63021;52.836;6.376;2022-09-09T14:52:42;100742.63;;;21.79;58.50
55456;BME280;63021;52.836;6.376;2022-09-09T14:55:08;100745.75;;;21.57;58.06
55456;BME280;63021;52.836;6.376;2022-09-09T14:57:33;100740.94;;;21.34;57.90
55456;BME280;63021;52.836;6.376;2022-09-09T15:00:01;100746.34;;;21.09;57.89